KMHRKONT

Guest
Details From KMHR - Sacramento Mather
To KONT - Ontario Intl
Flight Number -
Tags generated
Created
Modified
Stats Distance 339 nm / 628 km
Max Altitude 31,800 ft / 9,693 m
Waypoints 5
Social Downloads 0
Likes 0
Share VATSIM

Download

Looking for another format? Having issues loading an existing format? Contact us
Advertisement - Login to hide

Notes

Basic altitude profile: - Ascent Rate: 2000ft/min - Ascent Speed: 250kts - Cruise Altitude: 31000ft - Cruise Speed: 420kts - Descent Rate: 1800ft/min - Descent Speed: 250kts Options: - Use NATs: yes - Use PACOTS: yes - Use low airways: no - Use high airways: yes

Route

KMHR LIN J189 AVE J6 LANDO KONT

ID Type Via Altitude Latitude Longitude Leg Dist Tot Dist Heading (true) Name
O KMHR APT - 0 ft / 0 m 38.55592˚ -121.29703˚ - 0 nm - Sacramento Mather
LIN VOR - 11,400 ft / 3,475 m 38.07458˚ -121.00386˚ 32 nm 32 nm 154° / 155° LINDEN VORTAC
AVE VOR J189 (AWY-HI) 31,800 ft / 9,693 m 35.64697˚ -119.97861˚ 153 nm 185 nm 161° / 162° AVENAL VORTAC
LANDO FIX J6 (AWY-HI) 17,000 ft / 5,182 m 35.01243˚ -118.61637˚ 76 nm 262 nm 119° / 120° -
O KONT APT - 0 ft / 0 m 34.05592˚ -117.60085˚ 76 nm 339 nm 139° / 139° Ontario Intl

Altitude Profile

Advertisement - Login to hide

Weather


0- 5 10 15 20 25 30 35+ Temperature / ° C

Clouds and Precipitation
Forecast for 2017-12-16 00:00 UTC. Updated 11 minutes ago

Ground ~20,000 ft ~40,000 ft Winds

KMHR

Details ICAO KMHR (MHR)
Name Sacramento Mather
Region United States
Timezone America/Los_Angeles (UTC-8.0)
Stats Elevation 96 ft / 29 m (AMSL)
Location 38.555923° -121.297031°
Runways 2
Magnetic Variation 13.492° E

METAR

KMHR 151846Z 00000KT 10SM BKN150 09/07 A3019 RMK HZ ALQDS

Decode

TAF

TAF KMHR 151738Z 1518/1618 VRB04KT P6SM SCT250 FM152300 33004KT P6SM BKN200 FM160400 VRB04KT 4SM HZ BKN120 FM161400 33010KT P6SM SKC FM161500 34012KT P6SM SKC FM161600 34014G21KT 4SM BR SKC

Decode

Departure Runways

ID Width Length Bearing (true) Bearing (mag) Surface Threshold Offset Overrun Length
04L 151 ft / 46 m 6,035 ft / 1,840 m 53.59° 40.10° Asphalt 0 ft / 0 m 1,001 ft / 305 m
04R 151 ft / 46 m 11,293 ft / 3,442 m 53.58° 40.09° Concrete 0 ft / 0 m 1,001 ft / 305 m
22L 151 ft / 46 m 11,293 ft / 3,442 m 233.60° 220.11° Concrete 0 ft / 0 m 1,001 ft / 305 m
22R 151 ft / 46 m 6,035 ft / 1,840 m 233.60° 220.11° Asphalt 0 ft / 0 m 1,001 ft / 305 m

KONT

Details ICAO KONT (ONT)
Name Ontario Intl
Region United States
Timezone America/Los_Angeles (UTC-8.0)
Stats Elevation 944 ft / 288 m (AMSL)
Location 34.055917° -117.600853°
Runways 2
Magnetic Variation 11.862° E

METAR

KONT 151853Z VRB03KT 10SM SCT250 24/M17 A3016 RMK AO2 SLP199 T02391172

Decode

TAF

TAF KONT 151720Z 1518/1624 VRB06KT P6SM SKC= TAF KSNS 151720Z 1518/1618 12011KT P6SM SKC FM152200 28008KT P6SM FEW200 FM160100 27006KT P6SM BKN200 FM160600 26006KT P6SM SCT200 FM161100 27005KT P6SM FEW200

Decode

Destination Runways

ID Width Length Bearing (true) Bearing (mag) Surface Threshold Offset Overrun Length
08L 151 ft / 46 m 12,279 ft / 3,743 m 89.96° 78.10° Concrete 997 ft / 304 m 400 ft / 122 m
26L 151 ft / 46 m 10,269 ft / 3,130 m 269.97° 258.11° Concrete 0 ft / 0 m 400 ft / 122 m
26R 151 ft / 46 m 12,279 ft / 3,743 m 269.99° 258.13° Concrete 0 ft / 0 m 400 ft / 122 m
8R 151 ft / 46 m 10,269 ft / 3,130 m 89.95° 78.09° Concrete 0 ft / 0 m 400 ft / 122 m

Approach Navaids

Runway Type Ident Frequency Range Bearing (true) Bearing (mag) Slope Elevation
08L Localiser IAOD 109.70 MHz 18 nm / 33 km 89.99° 78.13° - 929 ft / 283 m (AMSL)
08L Glidescope IAOD 109.70 MHz 10 nm / 19 km 89.97° 78.11° 3.00° 937 ft / 286 m (AMSL)
26L Localiser ITWO 111.35 MHz 18 nm / 33 km 269.99° 258.12° - 931 ft / 284 m (AMSL)
26L Glidescope ITWO 111.35 MHz 10 nm / 19 km 269.96° 258.10° 3.00° 922 ft / 281 m (AMSL)
26L DME ITWO 111.35 MHz 18 nm / 33 km - - - 944 ft / 288 m (AMSL)
26R Localiser IONT 109.70 MHz 18 nm / 33 km 269.96° 258.10° - 944 ft / 288 m (AMSL)
26R Glidescope IONT 109.70 MHz 10 nm / 19 km 269.98° 258.11° 3.00° 929 ft / 283 m (AMSL)
26R DME IONT 109.70 MHz 18 nm / 33 km - - - 944 ft / 288 m (AMSL)

Popular Alternatives